Alamo, California
Current Conditions -  °F | °C
As of 3:00 PM on Friday 31 Oct 2014 (Local Time) from KCCR Reporting Station
Haze Haze  
Wind Chill: 57°   Ceiling: 1300
Heat Index: 57°   Visibility: 3mi
Dew Point: 54°   Wind: 5mph
Humidity: 89%   Direction: 230°SW
Pressure: 29.8"   Gusts: NA
Location:  37.85°N, 122.03°W
Report Text: KCCR 312200Z 23004KT 3SM BR FEW008 BKN013 OVC050 14/12 A2980 RMK AO2 T01390122
Loading
Personal Weather Stations






























Interactive Weather Map
Tropical Storm Tracking
New forecast layout! Learn more

10-Day Weather Forecast

Advertisements
Track Severe Weather on mobile